Weather at Merty Merty Airport

Public forecast

Using degrees Celsius for public forecast. Weather courtesy of forecast.io.

Closest aviation weather report (METAR) to Merty Merty Airport

Report is more than 6 hours old.

Closest report is Olympic Dam Airport, 212.3 nm (393.2 km) WSW. Retrieved 2022/05/15 15:30 UTC (9 days ago):

YOLD 151530Z AUTO 26005KT 9999 // NCD 10/06 Q1018

Closest aviation forecast (TAF) to Merty Merty Airport

Closest forecast is Woomera Airfield, 237.9 nm (440.6 km) SW. Retrieved 2022/05/24 06:00 UTC (3 hours ago):

TAF YPWR 240522Z 2406/2500 01016KT 9999 SCT035 FM240800 01012KT 9999 SCT040 FM241200 01012KT 9999 -SHRA SCT050